createdAt,value
2023-07-25T00:00:54.863Z,0
2023-07-25T00:01:56.798Z,0
2023-07-25T00:02:57.944Z,0
2023-07-25T00:03:59.112Z,0
2023-07-25T00:05:30.702Z,0
2023-07-25T00:06:32.632Z,0
2023-07-25T00:07:34.688Z,0
2023-07-25T00:08:35.867Z,0
2023-07-25T00:09:37.008Z,0
2023-07-25T00:10:38.148Z,0
2023-07-25T00:11:40.207Z,0
2023-07-25T00:12:42.148Z,0
2023-07-25T00:13:43.231Z,0
2023-07-25T00:14:44.402Z,0
2023-07-25T00:15:45.526Z,0
2023-07-25T00:16:46.702Z,0
2023-07-25T00:17:47.666Z,0
2023-07-25T00:18:48.674Z,0
2023-07-25T00:19:49.799Z,0
2023-07-25T00:20:51.008Z,0
2023-07-25T00:21:52.918Z,0
2023-07-25T00:22:53.851Z,0
2023-07-25T00:23:54.974Z,0
2023-07-25T00:24:56.117Z,0
2023-07-25T00:25:57.305Z,0
2023-07-25T00:26:58.580Z,0
2023-07-25T00:28:30.874Z,0
2023-07-25T00:29:31.985Z,0
2023-07-25T00:30:33.071Z,0
2023-07-25T00:31:35.058Z,0
2023-07-25T00:32:35.894Z,0
2023-07-25T00:33:37.084Z,0
2023-07-25T00:34:39.185Z,0
2023-07-25T00:35:40.245Z,0
2023-07-25T00:36:41.275Z,0
2023-07-25T00:37:43.167Z,0
2023-07-25T00:38:44.484Z,0
2023-07-25T00:39:45.681Z,0
2023-07-25T00:40:46.718Z,0
2023-07-25T00:41:48.600Z,0
2023-07-25T00:42:49.775Z,0
2023-07-25T00:43:50.880Z,0
2023-07-25T00:44:52.046Z,0
2023-07-25T00:45:53.331Z,0
2023-07-25T00:46:54.297Z,0
2023-07-25T00:47:55.414Z,0
2023-07-25T00:48:56.457Z,0
2023-07-25T00:49:57.657Z,0
2023-07-25T00:50:59.284Z,0
2023-07-25T00:52:31.915Z,0
2023-07-25T00:53:32.999Z,0
2023-07-25T00:54:34.234Z,0
2023-07-25T00:55:35.420Z,0
2023-07-25T00:56:36.589Z,0
2023-07-25T00:57:37.850Z,0
2023-07-25T00:58:39.599Z,0
2023-07-25T00:59:40.709Z,0
2023-07-25T01:00:41.796Z,0
2023-07-25T01:01:43.755Z,0
2023-07-25T01:02:44.980Z,0
2023-07-25T01:03:46.162Z,0
2023-07-25T01:04:47.185Z,0
2023-07-25T01:05:48.409Z,0
2023-07-25T01:06:50.154Z,0
2023-07-25T01:07:52.267Z,0
2023-07-25T01:08:53.504Z,0
2023-07-25T01:09:54.685Z,0
2023-07-25T01:10:55.881Z,0
2023-07-25T01:11:57.669Z,0
2023-07-25T01:12:59.202Z,0
2023-07-25T01:14:30.984Z,0
2023-07-25T01:15:32.087Z,0
2023-07-25T01:16:33.325Z,0
2023-07-25T01:17:34.319Z,0
2023-07-25T01:18:35.377Z,0
2023-07-25T01:19:36.472Z,0
2023-07-25T01:20:37.598Z,0
2023-07-25T01:21:39.626Z,0
2023-07-25T01:22:41.588Z,0
2023-07-25T01:23:42.607Z,0
2023-07-25T01:24:43.966Z,0
2023-07-25T01:25:45.035Z,0
2023-07-25T01:26:46.135Z,0
2023-07-25T01:27:48.187Z,0
2023-07-25T01:28:49.360Z,0
2023-07-25T01:29:50.501Z,0
2023-07-25T01:30:51.467Z,0
2023-07-25T01:31:53.199Z,0
2023-07-25T01:32:54.437Z,0
2023-07-25T01:33:55.570Z,0
2023-07-25T01:34:56.604Z,0
2023-07-25T01:35:58.665Z,0
2023-07-25T01:37:31.186Z,0
2023-07-25T01:38:32.337Z,0
2023-07-25T01:39:33.431Z,0
2023-07-25T01:40:34.537Z,0
2023-07-25T01:41:35.564Z,0
2023-07-25T01:42:37.136Z,0
2023-07-25T01:43:38.329Z,0
2023-07-25T01:44:39.544Z,0
2023-07-25T01:45:40.697Z,0
2023-07-25T01:46:41.727Z,0
2023-07-25T01:48:44.178Z,0
2023-07-25T01:49:46.203Z,0
2023-07-25T01:50:47.389Z,0
2023-07-25T01:51:48.459Z,0
2023-07-25T01:52:50.207Z,0
2023-07-25T01:53:51.307Z,0
2023-07-25T01:54:52.441Z,0
2023-07-25T01:55:53.577Z,0
2023-07-25T01:56:54.821Z,0
2023-07-25T01:57:56.643Z,0
2023-07-25T01:58:57.638Z,0
2023-07-25T02:00:29.566Z,0
2023-07-25T02:01:31.002Z,0
2023-07-25T02:02:32.794Z,0
2023-07-25T02:03:33.766Z,0
2023-07-25T02:04:34.782Z,0
2023-07-25T02:05:36.620Z,0
2023-07-25T02:06:37.712Z,0
2023-07-25T02:07:38.871Z,0
2023-07-25T02:08:40.031Z,0
2023-07-25T02:09:41.085Z,0
2023-07-25T02:10:42.139Z,0
2023-07-25T02:11:43.134Z,0
2023-07-25T02:12:45.334Z,0
2023-07-25T02:13:46.496Z,0
2023-07-25T02:14:47.650Z,0
2023-07-25T02:15:48.829Z,0
2023-07-25T02:16:50.014Z,0
2023-07-25T02:17:50.913Z,0
2023-07-25T02:18:52.102Z,0
2023-07-25T02:19:53.273Z,0
2023-07-25T02:20:54.439Z,0
2023-07-25T02:21:55.592Z,0
2023-07-25T02:22:57.176Z,0
2023-07-25T02:24:29.206Z,0
2023-07-25T02:25:30.361Z,0
2023-07-25T02:26:31.536Z,0
2023-07-25T02:27:32.693Z,0
2023-07-25T02:28:34.671Z,0
2023-07-25T02:29:35.620Z,0
2023-07-25T02:30:36.728Z,0
2023-07-25T02:31:37.811Z,0
2023-07-25T02:32:39.759Z,0
2023-07-25T02:33:40.793Z,0
2023-07-25T02:34:41.808Z,0
2023-07-25T02:35:42.823Z,0
2023-07-25T02:36:44.226Z,0
2023-07-25T02:37:46.187Z,0
2023-07-25T02:38:47.312Z,0
2023-07-25T02:39:48.427Z,0
2023-07-25T02:40:49.495Z,0
2023-07-25T02:41:50.469Z,0
2023-07-25T02:42:52.305Z,0
2023-07-25T02:43:53.395Z,0
2023-07-25T02:44:54.581Z,0
2023-07-25T02:45:55.653Z,0
2023-07-25T02:46:56.684Z,0
2023-07-25T02:47:58.206Z,0
2023-07-25T02:49:29.919Z,0
2023-07-25T02:50:31.050Z,0
2023-07-25T02:51:32.426Z,0
2023-07-25T02:52:33.272Z,0
2023-07-25T02:53:34.385Z,0
2023-07-25T02:54:35.448Z,0
2023-07-25T02:55:36.579Z,0
2023-07-25T02:56:37.723Z,0
2023-07-25T02:57:38.912Z,0
2023-07-25T02:58:40.043Z,0
2023-07-25T02:59:41.704Z,0
2023-07-25T03:00:42.820Z,0
2023-07-25T03:01:44.333Z,0
2023-07-25T03:02:46.317Z,0
2023-07-25T03:03:47.359Z,0
2023-07-25T03:04:48.371Z,0
2023-07-25T03:05:49.407Z,0
2023-07-25T03:06:51.196Z,0
2023-07-25T03:07:53.195Z,0
2023-07-25T03:08:54.357Z,0
2023-07-25T03:09:55.440Z,0
2023-07-25T03:10:56.513Z,0
2023-07-25T03:11:57.966Z,0
2023-07-25T03:13:30.251Z,0
2023-07-25T03:14:31.413Z,0
2023-07-25T03:15:32.571Z,0
2023-07-25T03:16:33.698Z,0
2023-07-25T03:17:34.854Z,0
2023-07-25T03:18:35.835Z,0
2023-07-25T03:19:37.052Z,0
2023-07-25T03:20:38.193Z,0
2023-07-25T03:21:39.556Z,0
2023-07-25T03:22:41.156Z,0
2023-07-25T03:23:42.218Z,0
2023-07-25T03:24:43.393Z,0
2023-07-25T03:25:44.547Z,0
2023-07-25T03:26:45.621Z,0
2023-07-25T03:27:46.693Z,0
2023-07-25T03:28:47.816Z,0
2023-07-25T03:29:49.728Z,0
2023-07-25T03:30:50.884Z,0
2023-07-25T03:31:51.990Z,0
2023-07-25T03:32:53.791Z,0
2023-07-25T03:33:54.922Z,0
2023-07-25T03:34:55.985Z,0
2023-07-25T03:35:56.999Z,0
2023-07-25T03:37:30.181Z,0
2023-07-25T03:38:31.327Z,0
2023-07-25T03:39:32.481Z,0
2023-07-25T03:40:33.462Z,0
2023-07-25T03:41:34.837Z,0
2023-07-25T03:42:35.736Z,4
2023-07-25T03:43:37.736Z,4
2023-07-25T03:44:38.967Z,0
2023-07-25T03:45:40.146Z,0
2023-07-25T03:46:41.185Z,0
2023-07-25T03:47:42.221Z,0
2023-07-25T03:48:43.281Z,0
2023-07-25T03:49:44.386Z,0
2023-07-25T03:50:45.561Z,0
2023-07-25T03:51:46.609Z,0
2023-07-25T03:52:47.601Z,4
2023-07-25T03:53:49.648Z,4
2023-07-25T03:54:50.874Z,4
2023-07-25T03:55:51.965Z,4
2023-07-25T03:56:53.179Z,4
2023-07-25T03:57:55.122Z,8
2023-07-25T03:58:56.158Z,8
2023-07-25T03:59:57.685Z,8
2023-07-25T04:01:29.916Z,12
2023-07-25T04:02:31.720Z,12
2023-07-25T04:03:33.784Z,20
2023-07-25T04:04:34.825Z,20
2023-07-25T04:05:35.735Z,20
2023-07-25T04:06:36.812Z,20
2023-07-25T04:07:38.874Z,24
2023-07-25T04:08:40.812Z,24
2023-07-25T04:09:41.876Z,28
2023-07-25T04:10:42.904Z,28
2023-07-25T04:11:44.372Z,32
2023-07-25T04:12:45.473Z,28
2023-07-25T04:13:47.297Z,32
2023-07-25T04:14:48.445Z,28
2023-07-25T04:15:49.592Z,28
2023-07-25T04:16:50.630Z,24
2023-07-25T04:17:51.780Z,28
2023-07-25T04:18:52.828Z,32
2023-07-25T04:19:54.668Z,36
2023-07-25T04:20:55.844Z,40
2023-07-25T04:21:57.338Z,56
2023-07-25T04:23:29.654Z,60
2023-07-25T04:24:30.894Z,56
2023-07-25T04:25:32.016Z,48
2023-07-25T04:26:33.183Z,48
2023-07-25T04:27:34.301Z,44
2023-07-25T04:28:35.288Z,48
2023-07-25T04:29:36.343Z,48
2023-07-25T04:30:38.620Z,52
2023-07-25T04:31:39.755Z,56
2023-07-25T04:32:41.013Z,48
2023-07-25T04:33:42.702Z,48
2023-07-25T04:34:44.130Z,68
2023-07-25T04:35:45.143Z,88
2023-07-25T04:36:47.204Z,120
2023-07-25T04:37:49.224Z,164
2023-07-25T04:38:50.407Z,172
2023-07-25T04:39:52.171Z,188
2023-07-25T04:40:53.159Z,220
2023-07-25T04:41:54.197Z,244
2023-07-25T04:42:55.345Z,232
2023-07-25T04:44:28.193Z,228
2023-07-25T04:45:29.285Z,212
2023-07-25T04:46:30.349Z,204
2023-07-25T04:47:32.206Z,184
2023-07-25T04:48:33.226Z,172
2023-07-25T04:49:34.376Z,164
2023-07-25T04:50:35.560Z,148
2023-07-25T04:51:36.660Z,152
2023-07-25T04:52:37.705Z,152
2023-07-25T04:53:39.769Z,156
2023-07-25T04:54:40.983Z,168
2023-07-25T04:55:42.212Z,188
2023-07-25T04:56:43.427Z,232
2023-07-25T04:57:44.648Z,244
2023-07-25T04:58:45.721Z,260
2023-07-25T04:59:46.732Z,268
2023-07-25T05:00:48.816Z,272
2023-07-25T05:01:49.983Z,268
2023-07-25T05:02:51.253Z,268
2023-07-25T05:03:52.759Z,284
2023-07-25T05:04:53.795Z,300
2023-07-25T05:05:54.826Z,296
2023-07-25T05:06:56.120Z,312
2023-07-25T05:08:28.790Z,304
2023-07-25T05:09:30.729Z,280
2023-07-25T05:10:31.764Z,280
2023-07-25T05:11:33.185Z,272
2023-07-25T05:12:34.068Z,252
2023-07-25T05:13:36.250Z,240
2023-07-25T05:14:37.449Z,244
2023-07-25T05:15:38.652Z,256
2023-07-25T05:16:39.747Z,276
2023-07-25T05:17:40.792Z,284
2023-07-25T05:18:41.968Z,260
2023-07-25T05:19:43.219Z,244
2023-07-25T05:20:44.440Z,300
2023-07-25T05:21:45.524Z,340
2023-07-25T05:22:46.578Z,324
2023-07-25T05:23:48.204Z,324
2023-07-25T05:24:49.544Z,364
2023-07-25T05:25:50.671Z,460
2023-07-25T05:26:51.899Z,544
2023-07-25T05:27:53.052Z,580
2023-07-25T05:28:54.165Z,564
2023-07-25T05:29:55.264Z,524
2023-07-25T05:31:28.141Z,476
2023-07-25T05:32:29.332Z,500
2023-07-25T05:33:31.208Z,536
2023-07-25T05:34:33.241Z,536
2023-07-25T05:35:34.212Z,476
2023-07-25T05:36:35.378Z,508
2023-07-25T05:37:37.249Z,476
2023-07-25T05:38:38.596Z,528
2023-07-25T05:39:39.707Z,668
2023-07-25T05:40:40.835Z,656
2023-07-25T05:41:41.845Z,704
2023-07-25T05:42:43.056Z,736
2023-07-25T05:43:45.238Z,788
2023-07-25T05:44:46.427Z,840
2023-07-25T05:45:47.646Z,860
2023-07-25T05:46:48.596Z,876
2023-07-25T05:47:49.736Z,948
2023-07-25T05:48:50.865Z,932
2023-07-25T05:49:52.045Z,772
2023-07-25T05:50:53.417Z,684
2023-07-25T05:51:54.411Z,668
2023-07-25T05:52:55.475Z,820
2023-07-25T05:54:27.801Z,1016
2023-07-25T05:55:28.952Z,1020
2023-07-25T05:56:30.125Z,884
2023-07-25T05:57:31.246Z,996
2023-07-25T05:58:32.236Z,800
2023-07-25T05:59:34.168Z,892
2023-07-25T06:00:35.528Z,1040
2023-07-25T06:01:36.906Z,964
2023-07-25T06:02:37.984Z,1044
2023-07-25T06:03:39.108Z,1208
2023-07-25T06:04:40.728Z,1168
2023-07-25T06:05:41.777Z,1144
2023-07-25T06:06:46.765Z,1228
2023-07-25T06:07:48.696Z,1296
2023-07-25T06:08:49.855Z,1428
2023-07-25T06:09:50.964Z,1636
2023-07-25T06:10:52.031Z,1744
2023-07-25T06:11:53.144Z,1800
2023-07-25T06:12:54.270Z,1792
2023-07-25T06:13:56.728Z,1704
2023-07-25T06:15:28.358Z,1640
2023-07-25T06:16:29.635Z,1748
2023-07-25T06:17:30.417Z,1696
2023-07-25T06:18:31.567Z,1688
2023-07-25T06:19:32.711Z,1648
2023-07-25T06:20:33.934Z,2116
2023-07-25T06:21:35.118Z,2080
2023-07-25T06:22:36.171Z,1596
2023-07-25T06:23:37.346Z,1616
2023-07-25T06:24:38.671Z,1716
2023-07-25T06:25:39.699Z,1648
2023-07-25T06:26:40.862Z,1628
2023-07-25T06:27:42.105Z,1624
2023-07-25T06:28:43.012Z,1848
2023-07-25T06:29:44.310Z,1548
2023-07-25T06:30:46.182Z,1496
2023-07-25T06:31:47.220Z,1516
2023-07-25T06:32:48.469Z,1524
2023-07-25T06:33:49.515Z,1604
2023-07-25T06:34:51.226Z,1628
2023-07-25T06:35:52.258Z,1724
2023-07-25T06:36:53.500Z,1676
2023-07-25T06:37:55.257Z,1824
2023-07-25T06:39:27.037Z,1816
2023-07-25T06:40:28.289Z,1772
2023-07-25T06:41:29.531Z,1752
2023-07-25T06:42:30.366Z,1812
2023-07-25T06:43:31.580Z,2268
2023-07-25T06:44:33.354Z,2052
2023-07-25T06:45:34.427Z,2224
2023-07-25T06:46:35.446Z,2396
2023-07-25T06:47:36.450Z,2228
2023-07-25T06:48:38.326Z,2004
2023-07-25T06:49:40.264Z,1732
2023-07-25T06:50:41.395Z,1772
2023-07-25T06:51:42.492Z,1776
2023-07-25T06:52:43.445Z,1804
2023-07-25T06:53:44.658Z,1780
2023-07-25T06:54:46.246Z,1776
2023-07-25T06:55:47.239Z,1768
2023-07-25T06:56:49.237Z,1756
2023-07-25T06:57:50.293Z,1732
2023-07-25T06:58:51.343Z,1684
2023-07-25T06:59:53.152Z,1636
2023-07-25T07:00:54.314Z,1628
2023-07-25T07:02:26.412Z,1664
2023-07-25T07:03:27.479Z,1612
2023-07-25T07:04:29.349Z,1512
2023-07-25T07:05:31.202Z,1428
2023-07-25T07:06:32.329Z,1440
2023-07-25T07:07:34.251Z,1640
2023-07-25T07:08:36.288Z,1840
2023-07-25T07:09:37.369Z,1432
2023-07-25T07:10:38.565Z,1520
2023-07-25T07:11:39.647Z,2020
2023-07-25T07:12:40.711Z,2260
2023-07-25T07:13:41.869Z,2444
2023-07-25T07:14:43.987Z,2412
2023-07-25T07:15:45.630Z,2644
2023-07-25T07:16:46.688Z,2648
2023-07-25T07:17:47.654Z,2588
2023-07-25T07:18:49.255Z,2332
2023-07-25T07:19:50.390Z,2280
2023-07-25T07:20:51.457Z,2176
2023-07-25T07:21:52.407Z,2140
2023-07-25T07:22:54.156Z,1968
2023-07-25T07:24:26.761Z,1964
2023-07-25T07:25:27.788Z,1860
2023-07-25T07:26:28.745Z,1816
2023-07-25T07:27:29.722Z,1696
2023-07-25T07:28:30.671Z,1612
2023-07-25T07:29:32.297Z,1640
2023-07-25T07:30:33.342Z,1672
2023-07-25T07:31:34.499Z,1708
2023-07-25T07:32:35.451Z,1776
2023-07-25T07:33:37.146Z,1788
2023-07-25T07:34:38.832Z,1804
2023-07-25T07:35:39.950Z,1728
2023-07-25T07:36:41.063Z,1840
2023-07-25T07:37:42.705Z,1944
2023-07-25T07:38:43.919Z,2092
2023-07-25T07:39:45.688Z,2120
2023-07-25T07:40:46.645Z,2044
2023-07-25T07:41:47.694Z,1964
2023-07-25T07:42:48.792Z,1940
2023-07-25T07:43:49.849Z,1908
2023-07-25T07:44:51.677Z,1792
2023-07-25T07:45:52.663Z,1628
2023-07-25T07:46:53.745Z,1520
2023-07-25T07:48:25.624Z,1524
2023-07-25T07:49:26.824Z,1496
2023-07-25T07:50:27.945Z,1496
2023-07-25T07:51:29.302Z,1536
2023-07-25T07:52:42.133Z,1508
2023-07-25T07:53:31.931Z,1440
2023-07-25T07:54:33.730Z,1364
2023-07-25T07:55:35.780Z,1352
2023-07-25T07:56:36.768Z,1704
2023-07-25T07:57:37.745Z,1384
2023-07-25T07:58:38.873Z,1508
2023-07-25T07:59:40.098Z,1344
2023-07-25T08:00:41.783Z,1452
2023-07-25T08:01:42.924Z,1392
2023-07-25T08:02:44.888Z,1320
2023-07-25T08:03:46.053Z,1264
2023-07-25T08:04:47.740Z,1292
2023-07-25T08:05:48.881Z,1612
2023-07-25T08:06:50.884Z,1588
2023-07-25T08:07:52.715Z,1312
2023-07-25T08:08:53.661Z,1268
2023-07-25T08:10:25.154Z,1148
2023-07-25T08:11:26.330Z,1476
2023-07-25T08:12:28.024Z,1184
2023-07-25T08:13:28.915Z,1520
2023-07-25T08:14:29.891Z,1516
2023-07-25T08:15:31.707Z,1524
2023-07-25T08:16:32.677Z,1520
2023-07-25T08:17:33.700Z,1548
2023-07-25T08:18:34.588Z,1628
2023-07-25T08:19:35.559Z,1832
2023-07-25T08:20:36.540Z,2012
2023-07-25T08:21:37.820Z,2124
2023-07-25T08:22:39.188Z,2264
2023-07-25T08:23:40.174Z,2264
2023-07-25T08:24:41.809Z,2064
2023-07-25T08:25:42.786Z,1844
2023-07-25T08:26:44.659Z,1908
2023-07-25T08:27:45.701Z,1800
2023-07-25T08:28:46.615Z,1688
2023-07-25T08:29:48.216Z,1636
2023-07-25T08:30:49.252Z,1660
2023-07-25T08:31:51.176Z,1716
2023-07-25T08:32:52.153Z,1700
2023-07-25T08:33:52.998Z,1556
2023-07-25T08:35:25.667Z,1944
2023-07-25T08:36:26.653Z,1796
2023-07-25T08:37:28.205Z,1728
2023-07-25T08:38:29.754Z,1680
2023-07-25T08:39:30.696Z,1748
2023-07-25T08:40:31.682Z,1776
2023-07-25T08:41:33.081Z,1812
2023-07-25T08:42:33.648Z,1564
2023-07-25T08:43:34.676Z,1836
2023-07-25T08:44:35.610Z,1936
2023-07-25T08:45:37.234Z,2012
2023-07-25T08:46:38.214Z,2040
2023-07-25T08:47:39.274Z,2128
2023-07-25T08:48:40.230Z,2168
2023-07-25T08:49:42.190Z,2144
2023-07-25T08:50:43.119Z,2368
2023-07-25T08:51:44.272Z,2416
2023-07-25T08:52:45.210Z,2236
2023-07-25T08:53:46.174Z,2144
2023-07-25T08:54:47.678Z,1948
2023-07-25T08:55:49.200Z,2028
2023-07-25T08:56:50.163Z,2352
2023-07-25T08:57:51.688Z,2624
2023-07-25T08:58:52.656Z,3308
2023-07-25T09:00:24.449Z,3164
2023-07-25T09:01:25.441Z,3248
2023-07-25T09:02:27.209Z,3392
2023-07-25T09:03:28.247Z,2872
2023-07-25T09:04:29.138Z,2700
2023-07-25T09:05:31.007Z,2684
2023-07-25T09:06:32.668Z,1940
2023-07-25T09:07:33.713Z,1388
2023-07-25T09:08:35.796Z,1112
2023-07-25T09:09:36.728Z,1124
2023-07-25T09:10:37.759Z,1232
2023-07-25T09:11:38.777Z,1296
2023-07-25T09:12:39.759Z,1492
2023-07-25T09:13:40.782Z,1768
2023-07-25T09:14:41.767Z,1724
2023-07-25T09:15:43.985Z,1388
2023-07-25T09:16:45.004Z,1328
2023-07-25T09:17:46.077Z,1124
2023-07-25T09:18:47.034Z,1072
2023-07-25T09:19:48.034Z,1124
2023-07-25T09:20:48.984Z,1076
2023-07-25T09:21:49.917Z,1220
2023-07-25T09:22:50.857Z,1556
2023-07-25T09:23:51.773Z,1492
2023-07-25T09:24:53.301Z,1420
2023-07-25T09:26:25.637Z,1488
2023-07-25T09:27:26.589Z,1572
2023-07-25T09:28:27.516Z,1728
2023-07-25T09:29:28.471Z,2000
2023-07-25T09:30:29.446Z,2332
2023-07-25T09:31:31.532Z,2752
2023-07-25T09:32:32.206Z,2964
2023-07-25T09:33:33.112Z,2992
2023-07-25T09:34:35.306Z,3068
2023-07-25T09:35:35.690Z,3116
2023-07-25T09:36:36.694Z,3200
2023-07-25T09:37:38.290Z,3232
2023-07-25T09:38:39.349Z,3160
2023-07-25T09:39:40.338Z,3088
2023-07-25T09:40:41.263Z,3012
2023-07-25T09:41:42.242Z,2896
2023-07-25T09:42:43.330Z,2800
2023-07-25T09:43:44.215Z,2928
2023-07-25T09:44:45.698Z,2980
2023-07-25T09:45:47.207Z,2956
2023-07-25T09:46:48.195Z,2916
2023-07-25T09:47:49.168Z,2896
2023-07-25T09:48:50.140Z,2832
2023-07-25T09:49:51.100Z,2760
2023-07-25T09:50:52.140Z,2616
2023-07-25T09:52:23.854Z,2752
2023-07-25T09:53:24.864Z,3044
2023-07-25T09:54:26.690Z,3196
2023-07-25T09:55:27.642Z,3232
2023-07-25T09:56:29.213Z,3244
2023-07-25T09:57:30.276Z,3276
2023-07-25T09:58:31.268Z,3280
2023-07-25T09:59:32.228Z,3280
2023-07-25T10:00:33.733Z,3196
2023-07-25T10:01:35.097Z,3168
2023-07-25T10:02:35.695Z,3244
2023-07-25T10:03:36.741Z,3520
2023-07-25T10:04:37.640Z,3756
2023-07-25T10:05:39.256Z,3816
2023-07-25T10:06:40.215Z,3784
2023-07-25T10:07:41.703Z,3624
2023-07-25T10:08:42.742Z,3644
2023-07-25T10:09:44.021Z,3608
2023-07-25T10:10:45.121Z,3548
2023-07-25T10:11:46.042Z,3384
2023-07-25T10:12:47.045Z,3328
2023-07-25T10:13:47.992Z,3524
2023-07-25T10:14:49.706Z,3656
2023-07-25T10:15:51.239Z,4368
2023-07-25T10:16:52.658Z,4812
2023-07-25T10:18:24.133Z,4660
2023-07-25T10:19:25.067Z,4488
2023-07-25T10:20:26.026Z,4380
2023-07-25T10:21:26.959Z,4396
2023-07-25T10:22:27.886Z,4408
2023-07-25T10:23:28.845Z,4312
2023-07-25T10:24:29.922Z,4224
2023-07-25T10:25:30.784Z,4352
2023-07-25T10:26:32.772Z,4364
2023-07-25T10:27:33.713Z,4192
2023-07-25T10:28:34.674Z,4260
2023-07-25T10:29:35.731Z,4592
2023-07-25T10:30:36.697Z,4780
2023-07-25T10:31:37.841Z,4812
2023-07-25T10:32:39.245Z,4548
2023-07-25T10:33:40.204Z,4420
2023-07-25T10:34:41.709Z,4604
2023-07-25T10:35:42.675Z,4692
2023-07-25T10:36:44.347Z,4800
2023-07-25T10:37:45.318Z,4848
2023-07-25T10:38:47.169Z,4872
2023-07-25T10:39:48.123Z,4716
2023-07-25T10:40:49.057Z,4204
2023-07-25T10:41:50.080Z,3776
2023-07-25T10:43:05.693Z,3680
2023-07-25T10:43:52.472Z,3392
2023-07-25T10:45:24.041Z,3856
2023-07-25T10:46:26.078Z,3768
2023-07-25T10:47:27.869Z,4364
2023-07-25T10:48:28.823Z,4560
2023-07-25T10:49:29.817Z,4708
2023-07-25T10:50:30.816Z,4888
2023-07-25T10:51:32.035Z,4804
2023-07-25T10:52:32.793Z,4860
2023-07-25T10:53:33.730Z,4656
2023-07-25T10:54:34.752Z,4892
2023-07-25T10:55:35.762Z,4924
2023-07-25T10:56:37.754Z,4656
2023-07-25T10:57:38.862Z,4488
2023-07-25T10:58:40.667Z,4324
2023-07-25T10:59:41.566Z,3548
2023-07-25T11:00:42.570Z,2712
2023-07-25T11:01:43.548Z,2440
2023-07-25T11:02:44.746Z,2408
2023-07-25T11:03:46.303Z,2708
2023-07-25T11:04:47.287Z,3248
2023-07-25T11:05:48.198Z,4124
2023-07-25T11:06:49.755Z,4148
2023-07-25T11:07:50.884Z,3024
2023-07-25T11:09:23.349Z,3336
2023-07-25T11:10:24.311Z,4132
2023-07-25T11:11:25.260Z,4084
2023-07-25T11:12:26.220Z,3676
2023-07-25T11:13:27.372Z,3252
2023-07-25T11:14:28.322Z,2876
2023-07-25T11:15:45.902Z,3556
2023-07-25T11:16:32.284Z,3032
2023-07-25T11:17:33.164Z,3780
2023-07-25T11:18:34.188Z,3848
2023-07-25T11:19:35.171Z,3744
2023-07-25T11:20:36.311Z,3304
2023-07-25T11:21:37.396Z,4160
2023-07-25T11:22:38.475Z,3816
2023-07-25T11:23:40.238Z,3116
2023-07-25T11:24:41.296Z,3932
2023-07-25T11:25:42.579Z,3556
2023-07-25T11:26:43.918Z,4208
2023-07-25T11:27:45.773Z,3500
2023-07-25T11:28:46.857Z,3072
2023-07-25T11:29:47.824Z,3696
2023-07-25T11:30:49.847Z,3344
2023-07-25T11:31:50.960Z,2988
2023-07-25T11:33:22.870Z,3200
2023-07-25T11:34:23.874Z,3324
2023-07-25T11:35:24.877Z,3536
2023-07-25T11:36:26.801Z,3248
2023-07-25T11:37:27.948Z,2424
2023-07-25T11:38:29.806Z,2228
2023-07-25T11:39:30.982Z,2140
2023-07-25T11:40:31.841Z,2000
2023-07-25T11:41:33.143Z,2076
2023-07-25T11:42:33.948Z,2520
2023-07-25T11:43:35.132Z,2704
2023-07-25T11:44:36.307Z,3400
2023-07-25T11:45:37.386Z,4624
2023-07-25T11:46:39.324Z,5368
2023-07-25T11:47:40.342Z,4440
2023-07-25T11:48:41.474Z,5192
2023-07-25T11:49:51.291Z,5516
2023-07-25T11:50:44.523Z,4812
2023-07-25T11:51:45.540Z,3592
2023-07-25T11:52:46.545Z,4012
2023-07-25T11:53:47.489Z,4956
2023-07-25T11:54:48.660Z,4840
2023-07-25T11:55:49.790Z,4388
2023-07-25T11:56:51.802Z,3304
2023-07-25T11:58:23.414Z,3320
2023-07-25T11:59:24.465Z,3760
2023-07-25T12:00:25.489Z,3824
2023-07-25T12:01:27.355Z,3796
2023-07-25T12:02:28.417Z,4148
2023-07-25T12:03:29.558Z,4156
2023-07-25T12:04:30.538Z,4736
2023-07-25T12:05:32.174Z,5144
2023-07-25T12:06:34.260Z,5084
2023-07-25T12:07:35.799Z,4544
2023-07-25T12:08:36.994Z,4380
2023-07-25T12:09:38.073Z,4660
2023-07-25T12:10:39.092Z,5116
2023-07-25T12:11:40.074Z,5576
2023-07-25T12:12:41.198Z,5620
2023-07-25T12:13:42.322Z,5860
2023-07-25T12:14:44.278Z,6428
2023-07-25T12:15:45.512Z,6288
2023-07-25T12:16:47.289Z,6360
2023-07-25T12:17:48.308Z,5408
2023-07-25T12:18:49.281Z,4872
2023-07-25T12:19:50.398Z,3232
2023-07-25T12:21:22.295Z,3212
2023-07-25T12:22:23.329Z,3128
2023-07-25T12:23:24.308Z,3276
2023-07-25T12:24:25.333Z,2944
2023-07-25T12:25:26.389Z,2692
2023-07-25T12:26:27.522Z,2596
2023-07-25T12:27:29.336Z,2268
2023-07-25T12:28:30.327Z,2064
2023-07-25T12:29:31.333Z,1932
2023-07-25T12:30:32.377Z,2100
2023-07-25T12:31:33.554Z,2852
2023-07-25T12:32:35.363Z,3464
2023-07-25T12:33:36.515Z,3136
2023-07-25T12:34:37.469Z,2492
2023-07-25T12:35:39.282Z,1616
2023-07-25T12:36:40.407Z,828
2023-07-25T12:37:42.388Z,464
2023-07-25T12:38:45.447Z,352
2023-07-25T12:39:45.821Z,284
2023-07-25T12:40:47.774Z,280
2023-07-25T12:41:48.768Z,276
2023-07-25T12:42:49.779Z,380
2023-07-25T12:43:51.429Z,408
2023-07-25T12:45:23.142Z,360
2023-07-25T12:46:24.175Z,452
2023-07-25T12:47:25.204Z,456
2023-07-25T12:48:26.334Z,592
2023-07-25T12:49:28.312Z,1244
2023-07-25T12:50:29.507Z,2440
2023-07-25T12:51:30.938Z,3544
2023-07-25T12:52:31.605Z,3692
2023-07-25T12:53:32.548Z,3312
2023-07-25T12:54:33.629Z,2608
2023-07-25T12:55:35.827Z,2160
2023-07-25T12:56:36.078Z,1540
2023-07-25T12:57:38.387Z,1104
2023-07-25T12:58:38.307Z,736
2023-07-25T12:59:40.257Z,628
2023-07-25T13:00:41.537Z,668
2023-07-25T13:01:42.660Z,764
2023-07-25T13:02:44.353Z,860
2023-07-25T13:03:46.117Z,888
2023-07-25T13:04:46.886Z,904
2023-07-25T13:05:47.869Z,952
2023-07-25T13:06:49.782Z,1052
2023-07-25T13:07:51.399Z,1516
2023-07-25T13:09:23.939Z,1880
2023-07-25T13:10:25.930Z,2388
2023-07-25T13:11:25.960Z,3048
2023-07-25T13:12:27.178Z,3964
2023-07-25T13:13:28.796Z,5012
2023-07-25T13:14:29.993Z,5712
2023-07-25T13:15:31.080Z,6032
2023-07-25T13:16:32.167Z,6792
2023-07-25T13:17:33.274Z,5972
2023-07-25T13:18:35.007Z,6472
2023-07-25T13:19:36.294Z,5564
2023-07-25T13:20:37.439Z,5516
2023-07-25T13:21:38.527Z,5196
2023-07-25T13:22:39.813Z,5016
2023-07-25T13:23:40.993Z,6868
2023-07-25T13:24:42.274Z,6376
2023-07-25T13:25:43.387Z,6256
2023-07-25T13:26:44.543Z,5440
2023-07-25T13:27:45.608Z,5240
2023-07-25T13:28:46.588Z,4852
2023-07-25T13:29:48.363Z,6088
2023-07-25T13:30:49.521Z,6336
2023-07-25T13:31:51.090Z,7388
2023-07-25T13:33:23.428Z,8496
2023-07-25T13:34:25.597Z,7992
2023-07-25T13:35:25.390Z,9432
2023-07-25T13:36:27.435Z,7772
2023-07-25T13:37:28.588Z,5560
2023-07-25T13:38:29.601Z,4956
2023-07-25T13:39:30.607Z,5776
2023-07-25T13:40:32.306Z,6824
2023-07-25T13:41:33.639Z,7512
2023-07-25T13:42:34.456Z,6828
2023-07-25T13:43:36.384Z,6000
2023-07-25T13:44:37.428Z,6072
2023-07-25T13:45:51.799Z,6916
2023-07-25T13:46:39.398Z,6992
2023-07-25T13:47:40.554Z,6820
2023-07-25T13:48:41.757Z,9420
2023-07-25T13:49:43.795Z,9836
2023-07-25T13:50:52.796Z,8424
2023-07-25T13:51:45.951Z,9344
2023-07-25T13:52:46.931Z,7544
2023-07-25T13:53:48.879Z,6800
2023-07-25T13:54:50.061Z,4656
2023-07-25T13:56:21.774Z,4800
2023-07-25T13:57:25.614Z,4844
2023-07-25T13:58:24.812Z,4836
2023-07-25T13:59:26.361Z,4972
2023-07-25T14:00:27.486Z,5004
2023-07-25T14:01:28.667Z,4308
2023-07-25T14:02:29.766Z,3988
2023-07-25T14:03:31.759Z,3600
2023-07-25T14:04:32.385Z,3908
2023-07-25T14:05:34.360Z,4404
2023-07-25T14:06:35.498Z,4464
2023-07-25T14:07:36.684Z,4148
2023-07-25T14:08:38.263Z,3872
2023-07-25T14:09:40.284Z,4344
2023-07-25T14:10:41.380Z,4724
2023-07-25T14:11:42.593Z,4900
2023-07-25T14:12:44.005Z,4288
2023-07-25T14:13:45.099Z,4060
2023-07-25T14:14:46.198Z,4564
2023-07-25T14:15:47.321Z,4332
2023-07-25T14:16:48.452Z,5584
2023-07-25T14:17:49.570Z,4284
2023-07-25T14:19:22.333Z,3028
2023-07-25T14:20:23.448Z,2912
2023-07-25T14:21:24.554Z,2976
2023-07-25T14:22:25.623Z,2988
2023-07-25T14:23:27.384Z,4160
2023-07-25T14:24:28.535Z,6780